createdAt,value
2018-09-20T00:01:57.619Z,101119.34
2018-09-20T00:04:25.783Z,101112.33
2018-09-20T00:06:53.957Z,101115.95
2018-09-20T00:09:22.101Z,101117.52
2018-09-20T00:11:50.237Z,101113.42
2018-09-20T00:14:19.046Z,101113.22
2018-09-20T00:16:47.156Z,101111.03
2018-09-20T00:19:15.334Z,101101.27
2018-09-20T00:21:43.509Z,101108.66
2018-09-20T00:24:11.678Z,101111.43
2018-09-20T00:26:39.828Z,101108.35
2018-09-20T00:29:08.023Z,101112.89
2018-09-20T00:31:36.201Z,101119.56
2018-09-20T00:34:04.351Z,101117.52
2018-09-20T00:36:32.493Z,101103.66
2018-09-20T00:39:00.664Z,101113.33
2018-09-20T00:41:28.838Z,101107.05
2018-09-20T00:43:57.029Z,101108.23
2018-09-20T00:46:25.644Z,101114.02
2018-09-20T00:48:55.535Z,101110.05
2018-09-20T00:51:23.722Z,101110.18
2018-09-20T00:53:51.874Z,101111.86
2018-09-20T00:56:20.061Z,101116.66
2018-09-20T00:58:48.251Z,101114.87
2018-09-20T01:01:16.422Z,101116.20
2018-09-20T01:03:44.591Z,101116.30
2018-09-20T01:06:12.744Z,101119.94
2018-09-20T01:08:40.923Z,101116.20
2018-09-20T01:11:09.056Z,101107.91
2018-09-20T01:13:37.214Z,101113.87
2018-09-20T01:16:05.504Z,101108.81
2018-09-20T01:18:33.632Z,101109.91
2018-09-20T01:21:01.804Z,101107.75
2018-09-20T01:23:29.958Z,101107.39
2018-09-20T01:25:58.190Z,101104.73
2018-09-20T01:28:26.308Z,101115.47
2018-09-20T01:30:54.453Z,101110.53
2018-09-20T01:33:22.572Z,101109.77
2018-09-20T01:35:50.729Z,101108.89
2018-09-20T01:38:18.844Z,101104.59
2018-09-20T01:40:46.960Z,101104.83
2018-09-20T01:43:15.102Z,101103.34
2018-09-20T01:45:43.241Z,101111.94
2018-09-20T01:48:11.402Z,101098.70
2018-09-20T01:50:39.546Z,101103.41
2018-09-20T01:53:07.777Z,101107.05
2018-09-20T01:55:35.933Z,101110.91
2018-09-20T01:58:04.093Z,101107.13
2018-09-20T02:00:32.220Z,101104.36
2018-09-20T02:03:00.368Z,101102.08
2018-09-20T02:05:28.536Z,101104.11
2018-09-20T02:07:56.754Z,101099.19
2018-09-20T02:10:24.901Z,101104.40
2018-09-20T02:12:53.044Z,101107.65
2018-09-20T02:15:21.161Z,101108.86
2018-09-20T02:17:49.312Z,101106.28
2018-09-20T02:20:17.445Z,101102.44
2018-09-20T02:22:45.546Z,101103.80
2018-09-20T02:25:13.717Z,101103.92
2018-09-20T02:27:41.873Z,101103.80
2018-09-20T02:30:10.062Z,101106.21
2018-09-20T02:32:38.185Z,101115.35
2018-09-20T02:35:06.315Z,101110.06
2018-09-20T02:37:34.418Z,101116.70
2018-09-20T02:40:02.588Z,101114.05
2018-09-20T02:42:30.727Z,101116.58
2018-09-20T02:44:58.885Z,101112.27
2018-09-20T02:47:27.026Z,101115.52
2018-09-20T02:49:55.129Z,101113.11
2018-09-20T02:52:23.423Z,101118.30
2018-09-20T02:54:51.592Z,101119.92
2018-09-20T02:57:19.711Z,101123.76
2018-09-20T02:59:47.843Z,101121.84
2018-09-20T03:02:15.965Z,101115.95
2018-09-20T03:04:44.154Z,101117.61
2018-09-20T03:07:12.336Z,101123.24
2018-09-20T03:09:40.426Z,101117.74
2018-09-20T03:12:08.546Z,101123.88
2018-09-20T03:14:36.698Z,101118.93
2018-09-20T03:17:04.932Z,101115.69
2018-09-20T03:19:33.083Z,101111.57
2018-09-20T03:22:01.256Z,101110.00
2018-09-20T03:24:29.328Z,101113.12
2018-09-20T03:26:57.462Z,101114.81
2018-09-20T03:29:25.595Z,101113.81
2018-09-20T03:31:53.723Z,101109.98
2018-09-20T03:34:21.832Z,101107.20
2018-09-20T03:36:49.956Z,101105.38
2018-09-20T03:39:18.077Z,101106.36
2018-09-20T03:41:46.221Z,101109.73
2018-09-20T03:44:14.390Z,101109.62
2018-09-20T03:46:42.518Z,101111.62
2018-09-20T03:49:10.649Z,101111.73
2018-09-20T03:51:38.744Z,101115.95
2018-09-20T03:54:06.982Z,101111.25
2018-09-20T03:56:35.121Z,101114.74
2018-09-20T03:59:03.260Z,101117.97
2018-09-20T04:01:31.405Z,101110.78
2018-09-20T04:03:59.562Z,101113.05
2018-09-20T04:06:27.705Z,101112.55
2018-09-20T04:08:55.873Z,101112.72
2018-09-20T04:11:24.008Z,101115.58
2018-09-20T04:13:52.161Z,101104.64
2018-09-20T04:16:20.319Z,101109.52
2018-09-20T04:18:48.465Z,101117.06
2018-09-20T04:21:23.157Z,101118.28
2018-09-20T04:23:51.307Z,101119.56
2018-09-20T04:26:19.421Z,101117.98
2018-09-20T04:28:47.580Z,101118.28
2018-09-20T04:31:15.737Z,101121.61
2018-09-20T04:33:43.883Z,101129.80
2018-09-20T04:36:12.011Z,101128.08
2018-09-20T04:38:40.125Z,101125.32
2018-09-20T04:41:08.328Z,101123.67
2018-09-20T04:43:36.422Z,101127.89
2018-09-20T04:46:04.725Z,101123.56
2018-09-20T04:48:34.567Z,101121.14
2018-09-20T04:51:02.731Z,101128.84
2018-09-20T04:53:30.917Z,101130.27
2018-09-20T04:55:58.965Z,101131.48
2018-09-20T04:58:27.095Z,101132.32
2018-09-20T05:00:55.351Z,101134.48
2018-09-20T05:03:23.566Z,101134.75
2018-09-20T05:05:51.729Z,101139.41
2018-09-20T05:08:19.898Z,101132.28
2018-09-20T05:10:48.094Z,101131.66
2018-09-20T05:13:16.743Z,101135.44
2018-09-20T05:15:44.868Z,101134.82
2018-09-20T05:18:13.317Z,101134.34
2018-09-20T05:20:41.529Z,101130.27
2018-09-20T05:23:09.670Z,101137.23
2018-09-20T05:25:37.916Z,101126.64
2018-09-20T05:28:06.059Z,101128.69
2018-09-20T05:30:34.180Z,101132.55
2018-09-20T05:33:02.318Z,101135.92
2018-09-20T05:35:30.515Z,101141.57
2018-09-20T05:37:58.649Z,101143.47
2018-09-20T05:40:26.819Z,101151.55
2018-09-20T05:42:54.973Z,101146.48
2018-09-20T05:45:23.147Z,101147.91
2018-09-20T05:47:51.318Z,101146.73
2018-09-20T05:50:19.449Z,101146.27
2018-09-20T05:52:47.551Z,101149.23
2018-09-20T05:55:15.700Z,101151.73
2018-09-20T05:57:43.843Z,101155.43
2018-09-20T06:00:11.960Z,101153.30
2018-09-20T06:02:40.061Z,101152.20
2018-09-20T06:05:08.233Z,101157.66
2018-09-20T06:07:36.369Z,101162.72
2018-09-20T06:10:04.530Z,101149.98
2018-09-20T06:12:32.645Z,101150.86
2018-09-20T06:15:00.749Z,101159.19
2018-09-20T06:17:28.885Z,101160.39
2018-09-20T06:19:57.002Z,101156.95
2018-09-20T06:22:25.164Z,101162.46
2018-09-20T06:24:53.266Z,101158.98
2018-09-20T06:27:21.380Z,101156.22
2018-09-20T06:29:49.513Z,101156.52
2018-09-20T06:32:17.624Z,101161.19
2018-09-20T06:34:45.748Z,101164.70
2018-09-20T06:37:13.894Z,101158.20
2018-09-20T06:39:42.002Z,101157.58
2018-09-20T06:42:10.158Z,101150.25
2018-09-20T06:44:38.281Z,101143.72
2018-09-20T06:47:06.433Z,101151.06
2018-09-20T06:49:34.580Z,101152.09
2018-09-20T06:52:02.746Z,101143.64
2018-09-20T06:54:30.868Z,101144.70
2018-09-20T06:56:59.046Z,101149.72
2018-09-20T06:59:27.207Z,101147.70
2018-09-20T07:01:55.362Z,101148.63
2018-09-20T07:04:23.483Z,101150.44
2018-09-20T07:06:51.629Z,101144.19
2018-09-20T07:09:19.790Z,101150.91
2018-09-20T07:11:47.880Z,101150.37
2018-09-20T07:14:16.037Z,101145.31
2018-09-20T07:16:44.150Z,101141.81
2018-09-20T07:19:12.271Z,101145.67
2018-09-20T07:21:40.392Z,101140.23
2018-09-20T07:24:08.501Z,101145.89
2018-09-20T07:26:36.648Z,101155.87
2018-09-20T07:29:04.812Z,101152.40
2018-09-20T07:31:32.957Z,101151.07
2018-09-20T07:34:01.089Z,101150.06
2018-09-20T07:36:29.299Z,101151.91
2018-09-20T07:38:57.490Z,101156.09
2018-09-20T07:41:25.629Z,101156.59
2018-09-20T07:43:53.800Z,101152.83
2018-09-20T07:46:21.925Z,101150.50
2018-09-20T07:48:50.110Z,101158.48
2018-09-20T07:51:18.228Z,101153.72
2018-09-20T07:53:46.468Z,101150.17
2018-09-20T07:56:14.609Z,101154.32
2018-09-20T07:58:42.752Z,101146.72
2018-09-20T08:01:10.869Z,101140.95
2018-09-20T08:03:39.161Z,101137.89
2018-09-20T08:06:07.312Z,101140.95
2018-09-20T08:08:35.442Z,101136.67
2018-09-20T08:11:03.583Z,101148.57
2018-09-20T08:13:31.717Z,101144.69
2018-09-20T08:15:59.956Z,101144.67
2018-09-20T08:18:28.082Z,101132.56
2018-09-20T08:20:56.212Z,101136.98
2018-09-20T08:23:24.363Z,101135.16
2018-09-20T08:25:52.505Z,101146.70
2018-09-20T08:28:20.641Z,101145.23
2018-09-20T08:30:48.740Z,101144.33
2018-09-20T08:33:16.871Z,101147.41
2018-09-20T08:35:45.012Z,101149.37
2018-09-20T08:38:13.159Z,101143.98
2018-09-20T08:40:41.315Z,101153.75
2018-09-20T08:43:09.441Z,101155.16
2018-09-20T08:45:37.576Z,101156.36
2018-09-20T08:48:05.709Z,101145.70
2018-09-20T08:50:33.853Z,101151.44
2018-09-20T08:53:02.009Z,101143.61
2018-09-20T08:55:30.102Z,101152.91
2018-09-20T08:57:58.214Z,101144.39
2018-09-20T09:00:27.310Z,101135.25
2018-09-20T09:02:55.514Z,101132.05
2018-09-20T09:05:23.651Z,101135.67
2018-09-20T09:07:51.770Z,101134.14
2018-09-20T09:10:19.872Z,101129.65
2018-09-20T09:12:48.029Z,101133.01
2018-09-20T09:15:16.206Z,101136.17
2018-09-20T09:17:44.331Z,101128.72
2018-09-20T09:20:12.516Z,101120.97
2018-09-20T09:22:40.638Z,101128.92
2018-09-20T09:25:08.780Z,101122.92
2018-09-20T09:27:36.946Z,101126.05
2018-09-20T09:30:05.240Z,101126.40
2018-09-20T09:32:33.366Z,101121.52
2018-09-20T09:35:01.540Z,101122.60
2018-09-20T09:37:29.700Z,101122.82
2018-09-20T09:39:57.873Z,101108.45
2018-09-20T09:42:26.049Z,101108.59
2018-09-20T09:44:54.168Z,101107.61
2018-09-20T09:47:22.260Z,101109.55
2018-09-20T09:49:50.385Z,101106.27
2018-09-20T09:52:18.476Z,101090.77
2018-09-20T09:54:46.636Z,101104.83
2018-09-20T09:57:14.743Z,101093.25
2018-09-20T09:59:42.928Z,101100.00
2018-09-20T10:02:11.004Z,101084.55
2018-09-20T10:04:39.176Z,101089.77
2018-09-20T10:07:07.365Z,101086.73
2018-09-20T10:09:35.460Z,101084.60
2018-09-20T10:12:03.641Z,101085.23
2018-09-20T10:14:31.850Z,101082.08
2018-09-20T10:16:59.984Z,101077.93
2018-09-20T10:19:28.120Z,101078.97
2018-09-20T10:21:56.282Z,101071.13
2018-09-20T10:24:24.434Z,101076.20
2018-09-20T10:26:52.617Z,101068.14
2018-09-20T10:29:20.768Z,101066.36
2018-09-20T10:31:48.913Z,101055.14
2018-09-20T10:34:17.041Z,101048.34
2018-09-20T10:36:45.182Z,101055.95
2018-09-20T10:39:14.264Z,101053.53
2018-09-20T10:41:42.773Z,101059.39
2018-09-20T10:44:10.956Z,101043.72
2018-09-20T10:46:39.103Z,101042.20
2018-09-20T10:49:07.305Z,101046.50
2018-09-20T10:51:35.884Z,101047.28
2018-09-20T10:54:04.030Z,101039.06
2018-09-20T10:56:32.240Z,101058.02
2018-09-20T10:59:00.393Z,101043.97
2018-09-20T11:01:28.553Z,101040.98
2018-09-20T11:03:56.697Z,101029.63
2018-09-20T11:06:24.873Z,101032.23
2018-09-20T11:08:53.012Z,101029.07
2018-09-20T11:11:21.132Z,101025.91
2018-09-20T11:13:49.305Z,101020.09
2018-09-20T11:16:17.447Z,101018.96
2018-09-20T11:18:45.566Z,101019.72
2018-09-20T11:21:13.717Z,101014.64
2018-09-20T11:23:42.822Z,101016.83
2018-09-20T11:26:10.984Z,101014.13
2018-09-20T11:28:39.133Z,101009.61
2018-09-20T11:32:04.818Z,101006.13
2018-09-20T11:34:33.006Z,101011.33
2018-09-20T11:37:01.123Z,101011.33
2018-09-20T11:39:29.298Z,101010.49
2018-09-20T11:41:57.449Z,101006.09
2018-09-20T11:44:25.609Z,100998.54
2018-09-20T11:46:53.764Z,101014.24
2018-09-20T11:49:21.968Z,101005.71
2018-09-20T11:51:50.105Z,101018.38
2018-09-20T11:54:18.259Z,101001.34
2018-09-20T11:56:46.381Z,101005.39
2018-09-20T11:59:14.551Z,101000.34
2018-09-20T12:01:42.761Z,101000.21
2018-09-20T12:04:10.876Z,100996.52
2018-09-20T12:06:38.991Z,100997.55
2018-09-20T12:09:07.170Z,100999.90
2018-09-20T12:11:35.313Z,100994.75
2018-09-20T12:14:03.476Z,100999.74
2018-09-20T12:16:31.659Z,100986.37
2018-09-20T12:18:59.863Z,100990.07
2018-09-20T12:21:28.067Z,100989.04
2018-09-20T12:23:56.203Z,100993.31
2018-09-20T12:26:24.338Z,100991.77
2018-09-20T12:28:52.485Z,100990.53
2018-09-20T12:31:20.682Z,100983.16
2018-09-20T12:33:48.797Z,100988.43
2018-09-20T12:36:17.258Z,100977.58
2018-09-20T12:38:45.961Z,100986.59
2018-09-20T12:41:14.088Z,100985.17
2018-09-20T12:43:43.377Z,100978.67
2018-09-20T12:46:11.525Z,100973.36
2018-09-20T12:48:39.670Z,100973.87
2018-09-20T12:51:08.013Z,100974.90
2018-09-20T12:53:36.163Z,100975.20
2018-09-20T12:56:04.322Z,100978.20
2018-09-20T12:58:37.830Z,100967.83
2018-09-20T13:01:06.022Z,100967.80
2018-09-20T13:03:34.147Z,100971.68
2018-09-20T13:06:02.330Z,100963.02
2018-09-20T13:08:30.525Z,100963.52
2018-09-20T13:10:58.752Z,100963.06
2018-09-20T13:13:26.892Z,100957.22
2018-09-20T13:15:54.999Z,100957.36
2018-09-20T13:18:23.140Z,100957.67
2018-09-20T13:20:51.267Z,100958.15
2018-09-20T13:23:19.409Z,100962.50
2018-09-20T13:25:47.588Z,100958.18
2018-09-20T13:28:15.745Z,100961.41
2018-09-20T13:30:43.914Z,100962.10
2018-09-20T13:33:12.086Z,100948.06
2018-09-20T13:35:40.309Z,100942.37
2018-09-20T13:38:08.492Z,100952.90
2018-09-20T13:40:36.613Z,100947.91
2018-09-20T13:43:04.742Z,100947.05
2018-09-20T13:45:32.939Z,100936.38
2018-09-20T13:48:01.110Z,100929.53
2018-09-20T13:50:29.254Z,100930.38
2018-09-20T13:52:57.392Z,100930.81
2018-09-20T13:55:25.521Z,100917.81
2018-09-20T13:57:53.673Z,100907.95
2018-09-20T14:00:21.845Z,100905.44
2018-09-20T14:02:49.973Z,100915.66
2018-09-20T14:05:18.106Z,100914.31
2018-09-20T14:07:46.290Z,100907.78
2018-09-20T14:10:14.441Z,100893.03
2018-09-20T14:12:42.633Z,100894.03
2018-09-20T14:15:10.787Z,100896.21
2018-09-20T14:17:38.969Z,100891.35
2018-09-20T14:20:07.152Z,100890.84
2018-09-20T14:22:35.288Z,100888.18
2018-09-20T14:25:03.461Z,100878.94
2018-09-20T14:27:31.616Z,100884.80
2018-09-20T14:29:59.781Z,100876.64
2018-09-20T14:32:27.901Z,100874.29
2018-09-20T14:34:56.095Z,100878.09
2018-09-20T14:37:24.279Z,100874.76
2018-09-20T14:39:52.472Z,100872.73
2018-09-20T14:42:20.613Z,100876.97
2018-09-20T14:44:48.749Z,100874.64
2018-09-20T14:47:16.927Z,100875.53
2018-09-20T14:49:45.044Z,100878.23
2018-09-20T14:52:13.177Z,100873.36
2018-09-20T14:54:41.318Z,100867.67
2018-09-20T14:57:09.436Z,100863.98
2018-09-20T14:59:37.604Z,100863.63
2018-09-20T15:02:05.811Z,100870.34
2018-09-20T15:04:33.987Z,100872.69
2018-09-20T15:07:02.113Z,100864.67
2018-09-20T15:09:30.299Z,100866.80
2018-09-20T15:11:58.410Z,100864.44
2018-09-20T15:14:26.586Z,100860.27
2018-09-20T15:16:54.742Z,100863.45
2018-09-20T15:19:22.869Z,100866.79
2018-09-20T15:21:51.000Z,100867.67
2018-09-20T15:24:19.128Z,100865.33
2018-09-20T15:26:47.245Z,100881.24
2018-09-20T15:29:15.406Z,100871.72
2018-09-20T15:31:43.557Z,100872.88
2018-09-20T15:34:11.733Z,100871.23
2018-09-20T15:36:39.913Z,100873.55
2018-09-20T15:39:09.919Z,100873.05
2018-09-20T15:41:38.097Z,100867.55
2018-09-20T15:44:06.261Z,100863.19
2018-09-20T15:46:34.416Z,100864.36
2018-09-20T15:49:02.731Z,100868.70
2018-09-20T15:51:30.857Z,100865.70
2018-09-20T15:53:59.003Z,100855.67
2018-09-20T15:56:27.170Z,100856.70
2018-09-20T15:58:55.337Z,100857.37
2018-09-20T16:01:23.509Z,100856.19
2018-09-20T16:03:51.645Z,100855.70
2018-09-20T16:06:21.284Z,100853.34
2018-09-20T16:08:49.558Z,100850.70
2018-09-20T16:11:17.729Z,100847.02
2018-09-20T16:13:46.346Z,100843.66
2018-09-20T16:16:14.721Z,100842.33
2018-09-20T16:18:42.864Z,100848.34
2018-09-20T16:21:13.726Z,100848.18
2018-09-20T16:30:12.455Z,100843.65
2018-09-20T16:35:08.564Z,100832.81
2018-09-20T16:37:51.426Z,100826.59
2018-09-20T16:40:21.386Z,100830.92
2018-09-20T16:42:51.032Z,100826.27
2018-09-20T16:45:19.212Z,100825.73
2018-09-20T16:47:47.362Z,100820.72
2018-09-20T16:50:15.523Z,100828.71
2018-09-20T16:52:43.756Z,100817.72
2018-09-20T16:55:11.912Z,100825.34
2018-09-20T16:57:40.149Z,100827.17
2018-09-20T17:00:10.502Z,100815.47
2018-09-20T17:02:41.896Z,100813.94
2018-09-20T17:05:10.716Z,100811.60
2018-09-20T17:07:38.912Z,100806.06
2018-09-20T17:10:07.160Z,100814.28
2018-09-20T17:12:35.471Z,100809.19
2018-09-20T17:15:03.836Z,100805.47
2018-09-20T17:17:32.089Z,100810.09
2018-09-20T17:20:00.345Z,100811.81
2018-09-20T17:22:28.482Z,100805.80
2018-09-20T17:24:56.636Z,100802.11
2018-09-20T17:27:25.324Z,100801.02
2018-09-20T17:29:53.472Z,100799.23
2018-09-20T17:32:21.617Z,100797.25
2018-09-20T17:34:49.878Z,100792.91
2018-09-20T17:37:19.094Z,100792.22
2018-09-20T17:39:48.070Z,100793.70
2018-09-20T17:42:16.722Z,100797.61
2018-09-20T17:44:44.861Z,100797.82
2018-09-20T17:47:13.112Z,100797.22
2018-09-20T17:49:41.262Z,100797.81
2018-09-20T17:52:09.813Z,100797.27
2018-09-20T17:54:38.281Z,100792.84
2018-09-20T17:57:06.969Z,100792.16
2018-09-20T17:59:35.140Z,100781.66
2018-09-20T18:02:03.296Z,100783.64
2018-09-20T18:04:31.453Z,100778.15
2018-09-20T18:06:59.581Z,100782.16
2018-09-20T18:09:27.776Z,100781.59
2018-09-20T18:11:55.919Z,100779.72
2018-09-20T18:14:24.046Z,100782.96
2018-09-20T18:16:52.180Z,100779.04
2018-09-20T18:19:20.304Z,100781.16
2018-09-20T18:21:48.449Z,100787.02
2018-09-20T18:24:16.628Z,100784.88
2018-09-20T18:26:44.744Z,100777.40
2018-09-20T18:29:12.896Z,100780.34
2018-09-20T18:31:41.037Z,100783.45
2018-09-20T18:34:09.218Z,100776.59
2018-09-20T18:36:37.342Z,100773.38
2018-09-20T18:39:08.402Z,100779.47
2018-09-20T18:41:36.553Z,100772.60
2018-09-20T18:44:04.691Z,100778.62
2018-09-20T18:46:32.868Z,100777.78
2018-09-20T18:49:01.050Z,100777.89
2018-09-20T18:51:29.181Z,100771.39
2018-09-20T18:53:57.333Z,100772.09
2018-09-20T18:56:25.683Z,100764.06
2018-09-20T18:58:53.836Z,100769.02
2018-09-20T19:01:21.943Z,100770.84
2018-09-20T19:03:50.095Z,100766.22
2018-09-20T19:06:18.243Z,100769.96
2018-09-20T19:08:46.404Z,100771.00
2018-09-20T19:11:14.546Z,100769.12
2018-09-20T19:13:42.721Z,100761.81
2018-09-20T19:16:10.842Z,100767.68
2018-09-20T19:18:39.132Z,100764.88
2018-09-20T19:21:07.297Z,100759.12
2018-09-20T19:23:35.639Z,100756.88
2018-09-20T19:26:03.777Z,100754.38
2018-09-20T19:28:32.017Z,100757.17
2018-09-20T19:31:00.192Z,100754.58
2018-09-20T19:33:28.346Z,100747.91
2018-09-20T19:35:56.461Z,100743.34
2018-09-20T19:38:24.619Z,100739.09
2018-09-20T19:40:52.736Z,100738.53
2018-09-20T19:43:20.920Z,100726.19
2018-09-20T19:45:49.103Z,100724.56
2018-09-20T19:48:17.284Z,100725.84
2018-09-20T19:50:45.413Z,100724.57
2018-09-20T19:53:13.559Z,100719.55
2018-09-20T19:55:41.669Z,100715.08
2018-09-20T19:58:09.785Z,100715.30
2018-09-20T20:00:38.025Z,100709.30
2018-09-20T20:03:06.255Z,100706.86
2018-09-20T20:05:34.405Z,100702.67
2018-09-20T20:08:02.550Z,100702.89
2018-09-20T20:10:30.723Z,100695.21
2018-09-20T20:12:58.995Z,100697.21
2018-09-20T20:15:27.147Z,100685.64
2018-09-20T20:17:55.256Z,100688.86
2018-09-20T20:20:23.485Z,100685.51
2018-09-20T20:22:51.593Z,100681.94
2018-09-20T20:25:19.726Z,100679.99
2018-09-20T20:27:47.896Z,100677.53
2018-09-20T20:30:16.065Z,100681.23
2018-09-20T20:32:44.229Z,100676.50
2018-09-20T20:35:12.369Z,100676.56
2018-09-20T20:37:40.625Z,100673.50
2018-09-20T20:40:08.742Z,100670.98
2018-09-20T20:42:36.899Z,100664.31
2018-09-20T20:45:05.035Z,100666.53
2018-09-20T20:47:33.172Z,100665.20
2018-09-20T20:50:01.268Z,100663.75
2018-09-20T20:52:29.393Z,100663.75
2018-09-20T20:54:57.511Z,100659.56
2018-09-20T20:57:25.668Z,100654.61
2018-09-20T20:59:53.818Z,100652.15
2018-09-20T21:02:21.943Z,100654.88
2018-09-20T21:04:50.061Z,100651.83
2018-09-20T21:07:18.232Z,100648.28
2018-09-20T21:09:46.387Z,100641.52
2018-09-20T21:12:14.523Z,100642.13
2018-09-20T21:14:42.650Z,100637.19
2018-09-20T21:17:10.755Z,100640.61
2018-09-20T21:19:38.884Z,100634.47
2018-09-20T21:22:07.054Z,100622.69
2018-09-20T21:24:35.340Z,100620.80
2018-09-20T21:27:03.469Z,100626.33
2018-09-20T21:29:31.615Z,100619.70
2018-09-20T21:31:59.746Z,100614.80
2018-09-20T21:34:27.850Z,100603.88
2018-09-20T21:36:55.966Z,100603.97
2018-09-20T21:39:24.122Z,100590.38
2018-09-20T21:41:52.245Z,100591.80
2018-09-20T21:44:20.394Z,100589.28
2018-09-20T21:46:48.496Z,100589.23
2018-09-20T21:49:16.626Z,100581.41
2018-09-20T21:51:44.754Z,100577.70
2018-09-20T21:54:12.933Z,100574.57
2018-09-20T21:56:41.039Z,100572.09
2018-09-20T21:59:09.134Z,100570.63
2018-09-20T22:01:42.640Z,100563.16
2018-09-20T22:04:10.804Z,100565.05
2018-09-20T22:06:39.020Z,100561.04
2018-09-20T22:09:09.128Z,100555.91
2018-09-20T22:11:37.760Z,100555.70
2018-09-20T22:14:06.033Z,100554.94
2018-09-20T22:16:40.391Z,100549.14
2018-09-20T22:19:08.554Z,100543.81
2018-09-20T22:21:36.695Z,100546.74
2018-09-20T22:24:04.825Z,100538.20
2018-09-20T22:26:32.949Z,100532.37
2018-09-20T22:29:01.061Z,100532.23
2018-09-20T22:31:29.182Z,100532.23
2018-09-20T22:33:57.317Z,100529.31
2018-09-20T22:36:25.441Z,100517.88
2018-09-20T22:38:53.541Z,100515.89
2018-09-20T22:41:21.656Z,100515.61
2018-09-20T22:43:49.785Z,100521.03
2018-09-20T22:46:17.910Z,100512.94
2018-09-20T22:48:46.036Z,100511.13
2018-09-20T22:51:14.226Z,100507.15
2018-09-20T22:53:43.293Z,100499.42
2018-09-20T22:56:11.453Z,100491.75
2018-09-20T22:58:39.604Z,100490.80
2018-09-20T23:01:07.815Z,100488.48
2018-09-20T23:03:35.952Z,100488.56
2018-09-20T23:06:04.074Z,100484.53
2018-09-20T23:08:32.198Z,100474.42
2018-09-20T23:11:00.316Z,100475.75
2018-09-20T23:13:28.428Z,100469.06
2018-09-20T23:15:56.564Z,100456.77
2018-09-20T23:18:24.679Z,100457.30
2018-09-20T23:20:52.845Z,100441.44
2018-09-20T23:23:20.980Z,100443.00
2018-09-20T23:25:49.125Z,100440.56
2018-09-20T23:28:17.280Z,100437.12
2018-09-20T23:30:45.456Z,100431.65
2018-09-20T23:33:13.555Z,100426.00
2018-09-20T23:35:41.732Z,100420.92
2018-09-20T23:38:09.870Z,100418.12
2018-09-20T23:40:37.974Z,100409.17
2018-09-20T23:43:06.104Z,100405.23
2018-09-20T23:45:34.224Z,100410.12
2018-09-20T23:48:02.389Z,100395.70
2018-09-20T23:50:30.529Z,100395.28
2018-09-20T23:52:58.658Z,100383.23
2018-09-20T23:55:26.782Z,100378.91
2018-09-20T23:57:54.944Z,100381.70
